Airfield :
LOGIN :

Register | Disclaimer

   EN    FR    IT 

 










Legend :    VFR   Marginal VFR   IFR   Intensive IFR   Very Intensive IFR
Visi :
Ceiling :
>= 8 km
>= 3000ft
5 to 8 km
1000 to 3000 ft
1500m to 5 km
500 to 1000 ft
800 to 1500m
200 to 500 ft
< 800m
< 200 ft
Symbols :   Thunderstorms  Fog  Heavy snow  Heavy precipitations  Wind > 20 kt
SIGMETs :     Misc.  Thunderstorms  Icing  Turbulence  Mountain Waves  Volcanic Ashes







- Airport Elevation : 1058 ft
- IATA code : SCN


EDDR - Saarbrücken

CURRENT METAR :
  • 261220Z 10008KT 060V140 CAVOK 14/01 Q1021 NOSIG

EXPIRED METARs :
  • 261150Z 08007KT 030V160 CAVOK 14/01 Q1021 NOSIG
  • 261120Z 09006KT 030V140 CAVOK 14/01 Q1022 NOSIG
  • 261050Z 11009KT CAVOK 13/01 Q1022 NOSIG
  • 261020Z 09009KT 050V120 CAVOK 12/01 Q1022 NOSIG
  • 260950Z 07010KT 030V100 CAVOK 12/01 Q1022 NOSIG

TAF TAF EDDR
Valid from the 26 at 12:00 until the 27 at 12:00 UTC


261100Z 2612/2712 07008KT CAVOK
No reported NOTAMs for that airfield.



MET'MAP, your aeronautical weather chart ! - Copyright ORBIFLY December 2007 - Disclaimer

ORBIFLY MET'MAP TEAM :

Programming & Development : Alexandra Zaïnal
Concept & Development : Baudouin d'Aumeries
Co-Development & Prog : Marc-Olivier Méhu
Technical & hardware support : Manuel Goepfert

Contact : metmap@orbifly.com




SOURCES & CREDITS :

   NOAA